Time;durP1;ratioP1;P1;durP2;ratioP2;P2;SDS_P1;SDS_P2;PMS_P1;PMS_P2;Temp;Humidity;BMP_temperature;BMP_pressure;BME280_temperature;BME280_humidity;BME280_pressure;Samples;Min_cycle;Max_cycle;Signal;HPM_P1;HPM_P2
2022/06/25 00:14:28;;;;;;;9.48;5.38;;;;;;;15.77;100.00;99729.06;31288663;28;20049;-70
2022/06/25 00:29:30;;;;;;;19.13;7.15;;;;;;;15.86;100.00;99740.69;31281450;28;20414;-72
2022/06/25 00:44:32;;;;;;;13.50;6.07;;;;;;;15.91;100.00;99745.56;31281652;28;20399;-72
2022/06/25 00:59:44;;;;;;;26.15;9.85;;;;;;;16.00;100.00;99751.00;31289693;28;20418;-71
2022/06/25 01:14:46;;;;;;;10.98;6.30;;;;;;;16.01;100.00;99774.41;31285246;28;20128;-71
2022/06/25 01:29:48;;;;;;;10.32;6.00;;;;;;;15.95;100.00;99780.97;31299959;28;20059;-72
2022/06/25 01:44:50;;;;;;;11.07;5.35;;;;;;;15.98;100.00;99786.28;31277176;28;20041;-70
2022/06/25 01:59:52;;;;;;;12.70;6.20;;;;;;;15.98;100.00;99780.81;31264802;28;20072;-71
2022/06/25 02:14:54;;;;;;;18.10;8.68;;;;;;;16.02;100.00;99797.84;31284019;28;20053;-71
2022/06/25 02:29:56;;;;;;;10.48;6.18;;;;;;;15.96;100.00;99798.91;31276697;28;20041;-70
2022/06/25 02:44:58;;;;;;;15.48;6.53;;;;;;;16.07;100.00;99803.88;31277263;28;20053;-72
2022/06/25 03:00:00;;;;;;;15.65;5.60;;;;;;;16.43;100.00;99836.59;31303084;28;20048;-70
2022/06/25 03:15:03;;;;;;;8.82;5.40;;;;;;;16.98;100.00;99847.25;31270150;28;20056;-70
2022/06/25 03:30:05;;;;;;;10.77;6.15;;;;;;;17.49;100.00;99857.94;31258704;28;20495;-71
2022/06/25 03:45:08;;;;;;;6.57;3.40;;;;;;;17.99;96.24;99861.59;31259074;28;20048;-71
2022/06/25 04:00:12;;;;;;;6.82;2.58;;;;;;;18.66;93.57;99868.09;31257925;28;20049;-70
2022/06/25 04:15:14;;;;;;;7.30;2.90;;;;;;;19.32;90.08;99872.94;31242432;28;20040;-71
2022/06/25 04:30:16;;;;;;;9.57;4.90;;;;;;;19.68;89.03;99898.38;31258281;28;20065;-73
2022/06/25 04:45:18;;;;;;;6.85;3.45;;;;;;;20.51;86.35;99917.66;31249203;28;20061;-72
2022/06/25 05:00:20;;;;;;;10.32;4.78;;;;;;;20.91;79.92;99924.16;31257043;28;20414;-70
2022/06/25 05:15:22;;;;;;;2.85;2.53;;;;;;;21.71;77.86;99924.75;31279790;28;20057;-71
2022/06/25 05:30:24;;;;;;;4.77;1.67;;;;;;;22.36;73.31;99932.88;31283729;28;20057;-71
2022/06/25 05:45:27;;;;;;;3.23;1.90;;;;;;;22.80;70.40;99937.59;31263712;28;20051;-72
2022/06/25 06:00:29;;;;;;;4.30;1.27;;;;;;;22.99;64.66;99937.81;31301988;28;20053;-72
2022/06/25 06:15:30;;;;;;;1.00;0.90;;;;;;;23.23;61.44;99935.22;31283648;28;20041;-71
2022/06/25 06:30:33;;;;;;;3.07;1.60;;;;;;;23.85;57.25;99949.53;31273202;28;20061;-71
2022/06/25 06:45:37;;;;;;;2.03;1.10;;;;;;;24.30;52.57;99957.56;31299083;28;20092;-71
2022/06/25 07:00:39;;;;;;;1.53;1.30;;;;;;;24.68;52.83;99939.81;31272551;28;20501;-71
2022/06/25 07:15:41;;;;;;;9.43;1.93;;;;;;;25.00;50.37;99953.16;31244691;28;20510;-74
2022/06/25 07:30:43;;;;;;;;;;;;;;;25.67;47.26;99969.75;31267520;28;20066;-72
2022/06/25 07:45:46;;;;;;;8.68;2.17;;;;;;;26.29;48.05;99961.25;31267055;28;19921;-73
2022/06/25 08:00:48;;;;;;;7.95;3.40;;;;;;;26.68;48.14;99965.44;31268274;28;20073;-72
2022/06/25 08:15:50;;;;;;;6.07;3.35;;;;;;;26.24;48.32;99966.91;31258905;28;20407;-73
2022/06/25 08:30:53;;;;;;;2.33;1.90;;;;;;;26.38;48.29;99957.34;31267841;28;20510;-72
2022/06/25 08:45:55;;;;;;;10.60;5.55;;;;;;;26.65;51.29;99953.34;31298891;28;20044;-71
2022/06/25 09:00:58;;;;;;;4.65;2.33;;;;;;;26.95;51.19;99963.44;31275422;28;20462;-71
2022/06/25 09:16:00;;;;;;;3.15;2.67;;;;;;;26.92;50.68;99975.66;31296646;28;20499;-71
2022/06/25 09:31:03;;;;;;;3.88;3.00;;;;;;;25.92;51.20;99972.47;31310393;28;20056;-71
2022/06/25 09:46:06;;;;;;;3.28;2.42;;;;;;;26.09;50.31;99976.50;31292925;28;20533;-71
2022/06/25 10:01:09;;;;;;;3.67;2.55;;;;;;;26.60;48.90;99961.78;31304546;28;20058;-70
2022/06/25 10:16:11;;;;;;;3.53;2.30;;;;;;;26.87;48.30;99965.34;31288110;28;20561;-70
2022/06/25 10:31:16;;;;;;;4.22;2.45;;;;;;;26.47;47.37;99976.41;31263870;28;20057;-69
2022/06/25 10:46:23;;;;;;;3.97;2.75;;;;;;;25.92;48.67;99962.09;31296338;28;20112;-71
2022/06/25 11:01:28;;;;;;;3.50;2.85;;;;;;;25.74;49.11;99985.09;31262702;28;20053;-72
2022/06/25 11:16:30;;;;;;;5.63;2.80;;;;;;;25.40;49.40;99979.94;31288912;28;20060;-71
2022/06/25 11:31:34;;;;;;;3.40;2.92;;;;;;;25.51;49.90;99981.09;31274226;28;20443;-73
2022/06/25 11:46:37;;;;;;;5.78;3.08;;;;;;;25.66;48.63;100001.63;31277837;28;20045;-80
2022/06/25 12:01:41;;;;;;;6.50;3.42;;;;;;;26.22;48.18;99986.19;31306185;28;20139;-73
2022/06/25 12:16:44;;;;;;;8.05;3.60;;;;;;;25.80;48.68;99983.72;31295524;28;20049;-72
2022/06/25 12:31:58;;;;;;;5.45;3.47;;;;;;;25.67;48.81;99980.13;31294718;28;20075;-73
2022/06/25 12:47:06;;;;;;;6.68;2.90;;;;;;;25.49;48.67;99970.50;31262185;28;20049;-70
2022/06/25 13:02:08;;;;;;;4.50;3.83;;;;;;;25.80;48.20;99960.72;31316283;28;20049;-72
2022/06/25 13:17:11;;;;;;;7.82;3.97;;;;;;;25.95;48.57;99944.34;31281004;28;20068;-71
2022/06/25 13:32:16;;;;;;;6.38;3.50;;;;;;;26.13;47.90;99926.88;31287621;28;20495;-71
2022/06/25 13:47:18;;;;;;;5.63;3.88;;;;;;;25.95;48.04;99922.09;31284380;28;20058;-71
2022/06/25 14:02:20;;;;;;;5.53;3.58;;;;;;;26.03;48.19;99911.84;31268820;28;20075;-71
2022/06/25 14:17:23;;;;;;;5.10;3.63;;;;;;;25.57;49.46;99917.81;31293206;28;20049;-72
2022/06/25 14:32:25;;;;;;;8.57;3.80;;;;;;;25.40;49.92;99931.94;31280144;28;20072;-72
2022/06/25 14:47:27;;;;;;;7.55;3.85;;;;;;;25.49;50.58;99920.47;31308778;28;20577;-70
2022/06/25 15:02:29;;;;;;;;;;;;;;;25.57;51.73;99923.38;31310263;28;20059;-71
2022/06/25 15:17:31;;;;;;;6.93;4.13;;;;;;;25.44;51.11;99930.38;31279631;28;20363;-72
2022/06/25 15:32:34;;;;;;;7.75;3.83;;;;;;;25.25;51.25;99935.19;31268861;28;20575;-70
2022/06/25 15:47:35;;;;;;;;;;;;;;;24.66;55.35;99958.25;31282246;28;20158;-72
2022/06/25 16:02:38;;;;;;;6.88;4.05;;;;;;;22.94;64.77;99974.56;31308913;28;20011;-71
2022/06/25 16:17:40;;;;;;;11.97;4.50;;;;;;;22.41;67.29;99971.59;31300881;28;20076;-72
2022/06/25 16:32:42;;;;;;;7.67;5.40;;;;;;;22.27;68.96;99980.09;31285694;28;20061;-71
2022/06/25 16:47:44;;;;;;;6.07;4.60;;;;;;;22.11;70.13;99962.25;31273826;28;20475;-70
2022/06/25 17:02:46;;;;;;;9.07;5.60;;;;;;;22.10;70.80;99966.28;31262953;28;20057;-70
2022/06/25 17:17:48;;;;;;;8.25;4.93;;;;;;;22.18;73.22;99999.72;31286150;28;20042;-70
2022/06/25 17:32:51;;;;;;;10.90;5.87;;;;;;;22.09;73.47;99997.94;31288952;28;20045;-72
2022/06/25 17:47:52;;;;;;;7.60;5.23;;;;;;;22.00;73.35;100007.22;31263239;28;20075;-71
2022/06/25 18:02:55;;;;;;;6.05;3.65;;;;;;;21.84;72.80;100016.19;31296083;28;20057;-72
2022/06/25 18:17:57;;;;;;;6.33;4.00;;;;;;;21.70;74.04;100004.09;31275358;28;20044;-71
2022/06/25 18:32:59;;;;;;;6.00;2.40;;;;;;;21.52;75.92;100032.13;31268693;28;20063;-72
2022/06/25 18:48:00;;;;;;;6.60;2.90;;;;;;;21.37;77.90;100043.38;31275836;28;20056;-72
2022/06/25 19:03:02;;;;;;;4.35;2.53;;;;;;;21.25;80.76;100060.38;31268330;28;20507;-72
2022/06/25 19:18:05;;;;;;;4.13;2.60;;;;;;;20.98;82.68;100065.19;31246899;28;20060;-77
2022/06/25 19:33:07;;;;;;;6.60;2.70;;;;;;;20.80;85.10;100073.03;31275430;28;20065;-80
2022/06/25 19:48:09;;;;;;;4.60;2.75;;;;;;;20.54;86.54;100062.06;31309451;28;20069;-77
2022/06/25 20:03:11;;;;;;;4.38;2.50;;;;;;;20.31;86.85;100063.81;31268034;28;20059;-77
2022/06/25 20:18:13;;;;;;;3.67;2.50;;;;;;;20.23;87.60;100051.69;31282337;28;20040;-77
2022/06/25 20:33:16;;;;;;;6.53;3.45;;;;;;;20.22;88.02;100044.66;31281074;28;20483;-75
2022/06/25 20:48:17;;;;;;;7.60;4.65;;;;;;;20.31;87.47;100030.75;31294527;28;20056;-75
2022/06/25 21:18:40;;;;;;;6.97;3.80;;;;;;;20.24;88.84;100036.69;31311574;28;20107;-76
2022/06/25 21:33:42;;;;;;;6.72;3.75;;;;;;;20.20;89.17;100063.69;31302533;28;20508;-76
2022/06/25 21:48:44;;;;;;;5.13;3.00;;;;;;;20.09;89.35;100062.31;31291783;28;20414;-76
2022/06/25 22:03:46;;;;;;;5.03;3.30;;;;;;;19.93;91.45;100073.16;31311823;28;20156;-75
2022/06/25 22:18:47;;;;;;;10.95;3.80;;;;;;;19.88;91.59;100069.09;31295803;28;20093;-76
2022/06/25 22:33:49;;;;;;;8.00;4.18;;;;;;;19.85;91.41;100067.28;31307501;28;20065;-76
2022/06/25 22:48:51;;;;;;;7.28;3.92;;;;;;;19.72;93.80;100064.91;31295679;28;20041;-75
2022/06/25 23:03:53;;;;;;;6.90;3.60;;;;;;;19.55;94.78;100063.19;31287656;28;20088;-76
2022/06/25 23:18:56;;;;;;;5.95;3.88;;;;;;;19.54;94.98;100070.69;31273048;28;20054;-75
2022/06/25 23:33:58;;;;;;;11.85;3.88;;;;;;;19.49;95.54;100074.09;31282692;28;20061;-76
2022/06/25 23:49:00;;;;;;;6.07;3.72;;;;;;;19.52;94.67;100086.16;31271766;28;20052;-76
